Terminal Aerodrome Forecast
Issued by NWS Cleveland, OH

Home | Current Version | Previous Version | Graphics & Text | Print | Product List | Glossary On
Versions: 1 2 3 4 5 6 7 8 9 10 11 12 13
000
FTUS41 KCLE 261645 AAA
TAFYNG
TAF AMD
KYNG 261645Z 2617/2712 26006KT P6SM VCSH SCT015 BKN035
      TEMPO 2617/2619 6SM -SHRA BKN008
     FM261900 30008KT P6SM OVC035
     FM270000 33003KT P6SM OVC035=

USA.gov is the U.S. government's official web portal to all federal, state and local government web resources and services.